sensor_id;sensor_type;location;lat;lon;timestamp;P1;durP1;ratioP1;P2;durP2;ratioP2
62673;SDS011;62269;47.594;17.638;2023-12-04T00:00:10;19.65;;;13.82;;
62673;SDS011;62269;47.594;17.638;2023-12-04T00:01:08;18.08;;;11.88;;
62673;SDS011;62269;47.594;17.638;2023-12-04T00:02:05;17.58;;;12.63;;
62673;SDS011;62269;47.594;17.638;2023-12-04T00:03:02;18.08;;;12.45;;
62673;SDS011;62269;47.594;17.638;2023-12-04T00:03:59;20.30;;;14.30;;
62673;SDS011;62269;47.594;17.638;2023-12-04T00:04:57;18.12;;;14.75;;
62673;SDS011;62269;47.594;17.638;2023-12-04T00:05:54;22.20;;;14.25;;
62673;SDS011;62269;47.594;17.638;2023-12-04T00:06:51;19.10;;;14.00;;
62673;SDS011;62269;47.594;17.638;2023-12-04T00:07:49;18.33;;;14.55;;
62673;SDS011;62269;47.594;17.638;2023-12-04T00:08:46;19.80;;;14.40;;
62673;SDS011;62269;47.594;17.638;2023-12-04T00:09:43;23.65;;;17.08;;
62673;SDS011;62269;47.594;17.638;2023-12-04T00:10:40;23.12;;;16.77;;
62673;SDS011;62269;47.594;17.638;2023-12-04T00:11:37;23.67;;;15.25;;
62673;SDS011;62269;47.594;17.638;2023-12-04T00:12:35;21.12;;;13.98;;
62673;SDS011;62269;47.594;17.638;2023-12-04T00:13:32;18.58;;;13.27;;
62673;SDS011;62269;47.594;17.638;2023-12-04T00:14:30;19.58;;;14.23;;
62673;SDS011;62269;47.594;17.638;2023-12-04T00:15:27;20.17;;;14.07;;
62673;SDS011;62269;47.594;17.638;2023-12-04T00:16:25;20.20;;;13.62;;
62673;SDS011;62269;47.594;17.638;2023-12-04T00:17:22;21.08;;;13.98;;
62673;SDS011;62269;47.594;17.638;2023-12-04T00:18:20;19.05;;;13.13;;
62673;SDS011;62269;47.594;17.638;2023-12-04T00:19:17;22.80;;;13.88;;
62673;SDS011;62269;47.594;17.638;2023-12-04T00:20:15;16.95;;;12.88;;
62673;SDS011;62269;47.594;17.638;2023-12-04T00:21:12;20.85;;;14.07;;
62673;SDS011;62269;47.594;17.638;2023-12-04T00:22:10;18.55;;;13.27;;
62673;SDS011;62269;47.594;17.638;2023-12-04T00:23:07;18.92;;;13.00;;
62673;SDS011;62269;47.594;17.638;2023-12-04T00:24:04;17.98;;;12.43;;
62673;SDS011;62269;47.594;17.638;2023-12-04T00:25:05;20.00;;;13.27;;
62673;SDS011;62269;47.594;17.638;2023-12-04T00:26:03;17.12;;;12.52;;
62673;SDS011;62269;47.594;17.638;2023-12-04T00:27:01;17.83;;;12.13;;
62673;SDS011;62269;47.594;17.638;2023-12-04T00:27:58;18.45;;;12.93;;
62673;SDS011;62269;47.594;17.638;2023-12-04T00:28:55;19.98;;;13.38;;
62673;SDS011;62269;47.594;17.638;2023-12-04T00:29:53;17.25;;;13.07;;
62673;SDS011;62269;47.594;17.638;2023-12-04T00:30:50;19.08;;;13.60;;
62673;SDS011;62269;47.594;17.638;2023-12-04T00:31:47;18.90;;;13.50;;
62673;SDS011;62269;47.594;17.638;2023-12-04T00:32:44;20.00;;;13.95;;
62673;SDS011;62269;47.594;17.638;2023-12-04T00:33:42;17.70;;;13.38;;
62673;SDS011;62269;47.594;17.638;2023-12-04T00:34:39;19.00;;;13.15;;
62673;SDS011;62269;47.594;17.638;2023-12-04T00:35:36;18.12;;;13.20;;
62673;SDS011;62269;47.594;17.638;2023-12-04T00:36:33;18.35;;;13.77;;
62673;SDS011;62269;47.594;17.638;2023-12-04T00:37:31;20.42;;;14.10;;
62673;SDS011;62269;47.594;17.638;2023-12-04T00:38:29;15.93;;;12.50;;
62673;SDS011;62269;47.594;17.638;2023-12-04T00:39:27;20.35;;;13.82;;
62673;SDS011;62269;47.594;17.638;2023-12-04T00:40:25;22.27;;;14.13;;
62673;SDS011;62269;47.594;17.638;2023-12-04T00:41:22;18.05;;;13.62;;
62673;SDS011;62269;47.594;17.638;2023-12-04T00:42:20;18.58;;;13.50;;
62673;SDS011;62269;47.594;17.638;2023-12-04T00:43:18;17.62;;;13.25;;
62673;SDS011;62269;47.594;17.638;2023-12-04T00:44:15;19.42;;;13.43;;
62673;SDS011;62269;47.594;17.638;2023-12-04T00:45:13;19.75;;;13.73;;
62673;SDS011;62269;47.594;17.638;2023-12-04T00:46:10;18.52;;;13.43;;
62673;SDS011;62269;47.594;17.638;2023-12-04T00:47:07;20.00;;;13.43;;
62673;SDS011;62269;47.594;17.638;2023-12-04T00:48:04;16.90;;;12.32;;
62673;SDS011;62269;47.594;17.638;2023-12-04T00:49:02;16.40;;;13.15;;
62673;SDS011;62269;47.594;17.638;2023-12-04T00:50:00;17.48;;;12.88;;
62673;SDS011;62269;47.594;17.638;2023-12-04T00:50:57;19.73;;;12.52;;
62673;SDS011;62269;47.594;17.638;2023-12-04T00:51:55;17.35;;;13.52;;
62673;SDS011;62269;47.594;17.638;2023-12-04T00:52:52;17.52;;;12.02;;
62673;SDS011;62269;47.594;17.638;2023-12-04T00:53:50;17.67;;;12.32;;
62673;SDS011;62269;47.594;17.638;2023-12-04T00:54:47;19.27;;;12.95;;
62673;SDS011;62269;47.594;17.638;2023-12-04T00:55:45;17.60;;;12.23;;
62673;SDS011;62269;47.594;17.638;2023-12-04T00:56:42;18.12;;;12.73;;
62673;SDS011;62269;47.594;17.638;2023-12-04T00:57:39;19.75;;;14.18;;
62673;SDS011;62269;47.594;17.638;2023-12-04T00:58:36;19.12;;;13.25;;
62673;SDS011;62269;47.594;17.638;2023-12-04T00:59:33;16.05;;;12.45;;
62673;SDS011;62269;47.594;17.638;2023-12-04T01:00:31;17.70;;;12.43;;
62673;SDS011;62269;47.594;17.638;2023-12-04T01:01:28;17.42;;;13.43;;
62673;SDS011;62269;47.594;17.638;2023-12-04T01:02:26;19.05;;;13.45;;
62673;SDS011;62269;47.594;17.638;2023-12-04T01:03:23;18.17;;;13.43;;
62673;SDS011;62269;47.594;17.638;2023-12-04T01:04:23;20.25;;;13.23;;
62673;SDS011;62269;47.594;17.638;2023-12-04T01:05:20;22.10;;;13.82;;
62673;SDS011;62269;47.594;17.638;2023-12-04T01:06:21;19.95;;;13.00;;
62673;SDS011;62269;47.594;17.638;2023-12-04T01:07:21;18.58;;;13.32;;
62673;SDS011;62269;47.594;17.638;2023-12-04T01:08:18;17.70;;;12.82;;
62673;SDS011;62269;47.594;17.638;2023-12-04T01:09:17;19.35;;;13.18;;
62673;SDS011;62269;47.594;17.638;2023-12-04T01:10:15;19.40;;;13.35;;
62673;SDS011;62269;47.594;17.638;2023-12-04T01:11:13;18.90;;;13.23;;
62673;SDS011;62269;47.594;17.638;2023-12-04T01:12:11;18.98;;;13.15;;
62673;SDS011;62269;47.594;17.638;2023-12-04T01:13:08;19.62;;;13.95;;
62673;SDS011;62269;47.594;17.638;2023-12-04T01:14:06;19.73;;;13.20;;
62673;SDS011;62269;47.594;17.638;2023-12-04T01:15:04;20.30;;;13.77;;
62673;SDS011;62269;47.594;17.638;2023-12-04T01:16:01;19.12;;;12.15;;
62673;SDS011;62269;47.594;17.638;2023-12-04T01:16:59;17.27;;;12.75;;
62673;SDS011;62269;47.594;17.638;2023-12-04T01:17:56;18.27;;;13.18;;
62673;SDS011;62269;47.594;17.638;2023-12-04T01:18:53;19.20;;;13.15;;
62673;SDS011;62269;47.594;17.638;2023-12-04T01:19:52;20.10;;;12.73;;
62673;SDS011;62269;47.594;17.638;2023-12-04T01:20:49;19.08;;;12.50;;
62673;SDS011;62269;47.594;17.638;2023-12-04T01:21:46;17.48;;;13.82;;
62673;SDS011;62269;47.594;17.638;2023-12-04T01:22:44;19.00;;;12.68;;
62673;SDS011;62269;47.594;17.638;2023-12-04T01:23:41;19.55;;;12.73;;
62673;SDS011;62269;47.594;17.638;2023-12-04T01:24:38;20.73;;;12.85;;
62673;SDS011;62269;47.594;17.638;2023-12-04T01:25:35;18.35;;;13.93;;
62673;SDS011;62269;47.594;17.638;2023-12-04T01:26:32;20.05;;;13.70;;
62673;SDS011;62269;47.594;17.638;2023-12-04T01:27:30;17.52;;;12.63;;
62673;SDS011;62269;47.594;17.638;2023-12-04T01:28:27;20.35;;;13.32;;
62673;SDS011;62269;47.594;17.638;2023-12-04T01:29:25;19.85;;;13.27;;
62673;SDS011;62269;47.594;17.638;2023-12-04T01:30:22;19.23;;;13.05;;
62673;SDS011;62269;47.594;17.638;2023-12-04T01:31:20;17.58;;;13.00;;
62673;SDS011;62269;47.594;17.638;2023-12-04T01:32:18;19.27;;;13.65;;
62673;SDS011;62269;47.594;17.638;2023-12-04T01:33:15;18.90;;;12.85;;
62673;SDS011;62269;47.594;17.638;2023-12-04T01:34:12;19.17;;;13.07;;
62673;SDS011;62269;47.594;17.638;2023-12-04T01:35:10;20.05;;;13.60;;
62673;SDS011;62269;47.594;17.638;2023-12-04T01:36:07;19.83;;;13.20;;
62673;SDS011;62269;47.594;17.638;2023-12-04T01:37:05;19.98;;;12.82;;
62673;SDS011;62269;47.594;17.638;2023-12-04T01:38:02;19.35;;;14.23;;
62673;SDS011;62269;47.594;17.638;2023-12-04T01:38:59;18.87;;;13.32;;
62673;SDS011;62269;47.594;17.638;2023-12-04T01:39:56;17.65;;;13.02;;
62673;SDS011;62269;47.594;17.638;2023-12-04T01:40:53;21.23;;;13.77;;
62673;SDS011;62269;47.594;17.638;2023-12-04T01:41:50;18.87;;;13.50;;
62673;SDS011;62269;47.594;17.638;2023-12-04T01:42:48;21.15;;;13.93;;
62673;SDS011;62269;47.594;17.638;2023-12-04T01:43:45;20.15;;;12.82;;
62673;SDS011;62269;47.594;17.638;2023-12-04T01:44:42;19.17;;;14.25;;
62673;SDS011;62269;47.594;17.638;2023-12-04T01:45:40;19.48;;;13.43;;
62673;SDS011;62269;47.594;17.638;2023-12-04T01:46:38;17.55;;;12.98;;
62673;SDS011;62269;47.594;17.638;2023-12-04T01:47:35;18.23;;;12.90;;
62673;SDS011;62269;47.594;17.638;2023-12-04T01:48:33;17.92;;;12.48;;
62673;SDS011;62269;47.594;17.638;2023-12-04T01:49:31;19.17;;;12.88;;
62673;SDS011;62269;47.594;17.638;2023-12-04T01:50:28;17.55;;;13.00;;
62673;SDS011;62269;47.594;17.638;2023-12-04T01:51:25;18.92;;;12.95;;
62673;SDS011;62269;47.594;17.638;2023-12-04T01:52:23;17.87;;;12.95;;
62673;SDS011;62269;47.594;17.638;2023-12-04T01:53:21;17.87;;;12.80;;
62673;SDS011;62269;47.594;17.638;2023-12-04T01:54:18;16.83;;;12.63;;
62673;SDS011;62269;47.594;17.638;2023-12-04T01:55:16;17.20;;;12.07;;
62673;SDS011;62269;47.594;17.638;2023-12-04T01:56:13;17.23;;;12.27;;
62673;SDS011;62269;47.594;17.638;2023-12-04T01:57:12;17.67;;;12.02;;
62673;SDS011;62269;47.594;17.638;2023-12-04T01:58:10;18.52;;;12.45;;
62673;SDS011;62269;47.594;17.638;2023-12-04T01:59:07;17.80;;;13.52;;
62673;SDS011;62269;47.594;17.638;2023-12-04T02:00:05;17.17;;;12.57;;
62673;SDS011;62269;47.594;17.638;2023-12-04T02:01:08;18.05;;;11.98;;
62673;SDS011;62269;47.594;17.638;2023-12-04T02:02:06;17.80;;;12.57;;
62673;SDS011;62269;47.594;17.638;2023-12-04T02:03:04;17.60;;;11.90;;
62673;SDS011;62269;47.594;17.638;2023-12-04T02:04:01;17.98;;;12.75;;
62673;SDS011;62269;47.594;17.638;2023-12-04T02:04:59;16.70;;;11.90;;
62673;SDS011;62269;47.594;17.638;2023-12-04T02:05:58;17.52;;;12.50;;
62673;SDS011;62269;47.594;17.638;2023-12-04T02:06:56;17.02;;;11.70;;
62673;SDS011;62269;47.594;17.638;2023-12-04T02:07:54;16.05;;;12.07;;
62673;SDS011;62269;47.594;17.638;2023-12-04T02:08:52;19.92;;;12.98;;
62673;SDS011;62269;47.594;17.638;2023-12-04T02:09:49;17.45;;;12.05;;
62673;SDS011;62269;47.594;17.638;2023-12-04T02:10:47;15.98;;;11.70;;
62673;SDS011;62269;47.594;17.638;2023-12-04T02:11:44;17.87;;;12.88;;
62673;SDS011;62269;47.594;17.638;2023-12-04T02:12:41;18.75;;;12.75;;
62673;SDS011;62269;47.594;17.638;2023-12-04T02:13:39;19.90;;;13.43;;
62673;SDS011;62269;47.594;17.638;2023-12-04T02:14:36;15.85;;;12.05;;
62673;SDS011;62269;47.594;17.638;2023-12-04T02:15:34;18.20;;;13.30;;
62673;SDS011;62269;47.594;17.638;2023-12-04T02:16:32;17.50;;;12.07;;
62673;SDS011;62269;47.594;17.638;2023-12-04T02:17:34;17.87;;;12.93;;
62673;SDS011;62269;47.594;17.638;2023-12-04T02:18:32;17.52;;;12.20;;
62673;SDS011;62269;47.594;17.638;2023-12-04T02:19:30;18.17;;;13.25;;
62673;SDS011;62269;47.594;17.638;2023-12-04T02:20:33;18.27;;;13.10;;
62673;SDS011;62269;47.594;17.638;2023-12-04T02:21:31;17.42;;;11.95;;
62673;SDS011;62269;47.594;17.638;2023-12-04T02:22:29;17.65;;;12.00;;
62673;SDS011;62269;47.594;17.638;2023-12-04T02:23:26;16.10;;;12.15;;
62673;SDS011;62269;47.594;17.638;2023-12-04T02:24:23;20.00;;;12.37;;
62673;SDS011;62269;47.594;17.638;2023-12-04T02:25:21;19.80;;;12.55;;
62673;SDS011;62269;47.594;17.638;2023-12-04T02:26:32;14.38;;;10.38;;
62673;SDS011;62269;47.594;17.638;2023-12-04T02:27:39;18.65;;;12.98;;
62673;SDS011;62269;47.594;17.638;2023-12-04T02:28:49;16.80;;;12.73;;
62673;SDS011;62269;47.594;17.638;2023-12-04T02:29:53;19.70;;;12.27;;
62673;SDS011;62269;47.594;17.638;2023-12-04T02:30:55;21.00;;;13.23;;
62673;SDS011;62269;47.594;17.638;2023-12-04T02:31:52;16.67;;;12.37;;
62673;SDS011;62269;47.594;17.638;2023-12-04T02:32:51;20.98;;;13.48;;
62673;SDS011;62269;47.594;17.638;2023-12-04T02:33:49;16.12;;;12.13;;
62673;SDS011;62269;47.594;17.638;2023-12-04T02:35:47;17.58;;;12.23;;
62673;SDS011;62269;47.594;17.638;2023-12-04T02:36:44;15.45;;;10.95;;
62673;SDS011;62269;47.594;17.638;2023-12-04T02:37:41;16.42;;;11.68;;
62673;SDS011;62269;47.594;17.638;2023-12-04T02:38:39;18.02;;;12.25;;
62673;SDS011;62269;47.594;17.638;2023-12-04T02:39:36;16.48;;;12.27;;
62673;SDS011;62269;47.594;17.638;2023-12-04T02:40:34;16.23;;;11.90;;
62673;SDS011;62269;47.594;17.638;2023-12-04T02:41:31;16.90;;;11.32;;
62673;SDS011;62269;47.594;17.638;2023-12-04T02:42:29;18.60;;;13.02;;
62673;SDS011;62269;47.594;17.638;2023-12-04T02:43:26;19.35;;;12.85;;
62673;SDS011;62269;47.594;17.638;2023-12-04T02:44:23;17.98;;;12.18;;
62673;SDS011;62269;47.594;17.638;2023-12-04T02:45:21;16.83;;;11.85;;
62673;SDS011;62269;47.594;17.638;2023-12-04T02:46:18;15.18;;;11.80;;
62673;SDS011;62269;47.594;17.638;2023-12-04T02:47:15;17.75;;;12.55;;
62673;SDS011;62269;47.594;17.638;2023-12-04T02:48:13;19.77;;;12.85;;
62673;SDS011;62269;47.594;17.638;2023-12-04T02:49:10;16.02;;;11.32;;
62673;SDS011;62269;47.594;17.638;2023-12-04T02:50:07;17.87;;;13.13;;
62673;SDS011;62269;47.594;17.638;2023-12-04T02:51:05;17.30;;;12.07;;
62673;SDS011;62269;47.594;17.638;2023-12-04T02:52:02;18.77;;;12.27;;
62673;SDS011;62269;47.594;17.638;2023-12-04T02:53:00;18.35;;;12.85;;
62673;SDS011;62269;47.594;17.638;2023-12-04T02:53:57;16.10;;;12.43;;
62673;SDS011;62269;47.594;17.638;2023-12-04T02:54:54;17.10;;;11.98;;
62673;SDS011;62269;47.594;17.638;2023-12-04T02:55:51;20.00;;;13.02;;
62673;SDS011;62269;47.594;17.638;2023-12-04T02:56:49;15.65;;;11.12;;
62673;SDS011;62269;47.594;17.638;2023-12-04T02:57:47;17.30;;;11.35;;
62673;SDS011;62269;47.594;17.638;2023-12-04T02:58:44;18.30;;;12.75;;
62673;SDS011;62269;47.594;17.638;2023-12-04T02:59:42;16.52;;;11.32;;
62673;SDS011;62269;47.594;17.638;2023-12-04T03:00:39;15.73;;;11.68;;
62673;SDS011;62269;47.594;17.638;2023-12-04T03:01:37;16.20;;;11.80;;
62673;SDS011;62269;47.594;17.638;2023-12-04T03:02:34;14.85;;;11.02;;
62673;SDS011;62269;47.594;17.638;2023-12-04T03:03:32;15.68;;;11.50;;
62673;SDS011;62269;47.594;17.638;2023-12-04T03:04:30;13.93;;;10.82;;
62673;SDS011;62269;47.594;17.638;2023-12-04T03:05:28;14.82;;;11.25;;
62673;SDS011;62269;47.594;17.638;2023-12-04T03:06:26;16.23;;;11.10;;
62673;SDS011;62269;47.594;17.638;2023-12-04T03:07:23;15.23;;;11.07;;
62673;SDS011;62269;47.594;17.638;2023-12-04T03:08:21;16.73;;;11.68;;
62673;SDS011;62269;47.594;17.638;2023-12-04T03:09:18;15.90;;;11.23;;
62673;SDS011;62269;47.594;17.638;2023-12-04T03:10:36;14.93;;;11.02;;
62673;SDS011;62269;47.594;17.638;2023-12-04T03:11:33;15.00;;;11.18;;
62673;SDS011;62269;47.594;17.638;2023-12-04T03:12:30;15.20;;;11.38;;
62673;SDS011;62269;47.594;17.638;2023-12-04T03:13:28;13.20;;;10.15;;
62673;SDS011;62269;47.594;17.638;2023-12-04T03:14:25;15.45;;;11.10;;
62673;SDS011;62269;47.594;17.638;2023-12-04T03:15:23;14.68;;;11.48;;
62673;SDS011;62269;47.594;17.638;2023-12-04T03:16:21;17.75;;;11.05;;
62673;SDS011;62269;47.594;17.638;2023-12-04T03:17:18;16.52;;;11.30;;
62673;SDS011;62269;47.594;17.638;2023-12-04T03:18:15;17.25;;;12.20;;
62673;SDS011;62269;47.594;17.638;2023-12-04T03:19:12;14.63;;;10.93;;
62673;SDS011;62269;47.594;17.638;2023-12-04T03:20:10;18.17;;;12.70;;
62673;SDS011;62269;47.594;17.638;2023-12-04T03:21:08;15.07;;;11.32;;
62673;SDS011;62269;47.594;17.638;2023-12-04T03:22:05;23.00;;;10.27;;
62673;SDS011;62269;47.594;17.638;2023-12-04T03:23:02;15.02;;;11.57;;
62673;SDS011;62269;47.594;17.638;2023-12-04T03:23:59;18.30;;;12.05;;
62673;SDS011;62269;47.594;17.638;2023-12-04T03:24:56;16.90;;;11.68;;
62673;SDS011;62269;47.594;17.638;2023-12-04T03:25:54;17.40;;;11.80;;
62673;SDS011;62269;47.594;17.638;2023-12-04T03:26:51;16.02;;;12.02;;
62673;SDS011;62269;47.594;17.638;2023-12-04T03:27:49;17.35;;;11.45;;
62673;SDS011;62269;47.594;17.638;2023-12-04T03:28:46;15.23;;;10.65;;
62673;SDS011;62269;47.594;17.638;2023-12-04T03:29:43;15.45;;;11.10;;
62673;SDS011;62269;47.594;17.638;2023-12-04T03:30:40;14.70;;;10.55;;
62673;SDS011;62269;47.594;17.638;2023-12-04T03:31:39;14.63;;;10.38;;
62673;SDS011;62269;47.594;17.638;2023-12-04T03:32:37;16.98;;;11.38;;
62673;SDS011;62269;47.594;17.638;2023-12-04T03:33:34;16.67;;;11.68;;
62673;SDS011;62269;47.594;17.638;2023-12-04T03:34:31;15.35;;;11.10;;
62673;SDS011;62269;47.594;17.638;2023-12-04T03:35:29;16.95;;;11.60;;
62673;SDS011;62269;47.594;17.638;2023-12-04T03:36:26;17.17;;;12.05;;
62673;SDS011;62269;47.594;17.638;2023-12-04T03:37:23;16.87;;;11.52;;
62673;SDS011;62269;47.594;17.638;2023-12-04T03:38:20;15.95;;;12.20;;
62673;SDS011;62269;47.594;17.638;2023-12-04T03:39:17;18.35;;;12.18;;
62673;SDS011;62269;47.594;17.638;2023-12-04T03:40:15;14.73;;;10.90;;
62673;SDS011;62269;47.594;17.638;2023-12-04T03:41:13;16.85;;;12.45;;
62673;SDS011;62269;47.594;17.638;2023-12-04T03:42:11;18.58;;;12.48;;
62673;SDS011;62269;47.594;17.638;2023-12-04T03:43:09;17.48;;;11.15;;
62673;SDS011;62269;47.594;17.638;2023-12-04T03:44:06;17.25;;;11.40;;
62673;SDS011;62269;47.594;17.638;2023-12-04T03:45:03;16.60;;;12.37;;
62673;SDS011;62269;47.594;17.638;2023-12-04T03:46:03;14.35;;;9.90;;
62673;SDS011;62269;47.594;17.638;2023-12-04T03:47:01;17.35;;;11.48;;
62673;SDS011;62269;47.594;17.638;2023-12-04T03:47:58;16.60;;;11.52;;
62673;SDS011;62269;47.594;17.638;2023-12-04T03:48:55;15.50;;;10.85;;
62673;SDS011;62269;47.594;17.638;2023-12-04T03:49:53;17.30;;;11.85;;
62673;SDS011;62269;47.594;17.638;2023-12-04T03:50:50;15.68;;;11.70;;
62673;SDS011;62269;47.594;17.638;2023-12-04T03:51:47;15.18;;;11.20;;
62673;SDS011;62269;47.594;17.638;2023-12-04T03:52:44;14.70;;;10.73;;
62673;SDS011;62269;47.594;17.638;2023-12-04T03:53:42;16.83;;;11.38;;
62673;SDS011;62269;47.594;17.638;2023-12-04T03:54:39;17.02;;;11.77;;
62673;SDS011;62269;47.594;17.638;2023-12-04T03:55:37;16.12;;;11.20;;
62673;SDS011;62269;47.594;17.638;2023-12-04T03:56:34;15.68;;;11.48;;
62673;SDS011;62269;47.594;17.638;2023-12-04T03:57:31;16.27;;;11.82;;
62673;SDS011;62269;47.594;17.638;2023-12-04T03:58:28;16.33;;;11.60;;
62673;SDS011;62269;47.594;17.638;2023-12-04T03:59:26;16.55;;;11.95;;
62673;SDS011;62269;47.594;17.638;2023-12-04T04:00:23;17.10;;;11.27;;
62673;SDS011;62269;47.594;17.638;2023-12-04T04:01:20;16.42;;;11.12;;
62673;SDS011;62269;47.594;17.638;2023-12-04T04:02:18;16.67;;;11.15;;
62673;SDS011;62269;47.594;17.638;2023-12-04T04:03:15;16.42;;;11.57;;
62673;SDS011;62269;47.594;17.638;2023-12-04T04:04:12;14.10;;;10.90;;
62673;SDS011;62269;47.594;17.638;2023-12-04T04:05:09;16.67;;;11.25;;
62673;SDS011;62269;47.594;17.638;2023-12-04T04:06:07;15.55;;;10.90;;
62673;SDS011;62269;47.594;17.638;2023-12-04T04:07:04;16.30;;;11.15;;
62673;SDS011;62269;47.594;17.638;2023-12-04T04:08:02;13.62;;;10.82;;
62673;SDS011;62269;47.594;17.638;2023-12-04T04:09:00;15.13;;;11.93;;
62673;SDS011;62269;47.594;17.638;2023-12-04T04:09:57;14.68;;;11.38;;
62673;SDS011;62269;47.594;17.638;2023-12-04T04:10:54;16.02;;;11.02;;
62673;SDS011;62269;47.594;17.638;2023-12-04T04:11:51;16.62;;;11.38;;
62673;SDS011;62269;47.594;17.638;2023-12-04T04:12:48;15.15;;;11.65;;
62673;SDS011;62269;47.594;17.638;2023-12-04T04:13:46;15.90;;;11.27;;
62673;SDS011;62269;47.594;17.638;2023-12-04T04:14:43;13.05;;;10.07;;
62673;SDS011;62269;47.594;17.638;2023-12-04T04:15:40;16.77;;;10.80;;
62673;SDS011;62269;47.594;17.638;2023-12-04T04:16:38;14.38;;;11.07;;
62673;SDS011;62269;47.594;17.638;2023-12-04T04:17:36;14.10;;;11.05;;
62673;SDS011;62269;47.594;17.638;2023-12-04T04:18:33;16.60;;;10.48;;
62673;SDS011;62269;47.594;17.638;2023-12-04T04:19:30;14.30;;;10.23;;
62673;SDS011;62269;47.594;17.638;2023-12-04T04:20:28;13.88;;;10.05;;
62673;SDS011;62269;47.594;17.638;2023-12-04T04:21:25;14.80;;;10.80;;
62673;SDS011;62269;47.594;17.638;2023-12-04T04:22:25;14.38;;;10.90;;
62673;SDS011;62269;47.594;17.638;2023-12-04T04:23:22;13.75;;;10.55;;
62673;SDS011;62269;47.594;17.638;2023-12-04T04:24:20;15.18;;;10.80;;
62673;SDS011;62269;47.594;17.638;2023-12-04T04:25:18;16.30;;;10.93;;
62673;SDS011;62269;47.594;17.638;2023-12-04T04:26:15;14.63;;;10.80;;
62673;SDS011;62269;47.594;17.638;2023-12-04T04:27:12;16.23;;;10.60;;
62673;SDS011;62269;47.594;17.638;2023-12-04T04:28:09;12.93;;;10.07;;
62673;SDS011;62269;47.594;17.638;2023-12-04T04:29:06;14.20;;;10.43;;
62673;SDS011;62269;47.594;17.638;2023-12-04T04:30:04;14.65;;;10.43;;
62673;SDS011;62269;47.594;17.638;2023-12-04T04:31:02;14.40;;;10.15;;
62673;SDS011;62269;47.594;17.638;2023-12-04T04:31:59;14.50;;;10.20;;
62673;SDS011;62269;47.594;17.638;2023-12-04T04:32:57;15.43;;;10.85;;
62673;SDS011;62269;47.594;17.638;2023-12-04T04:33:54;16.27;;;10.82;;
62673;SDS011;62269;47.594;17.638;2023-12-04T04:34:51;15.00;;;10.52;;
62673;SDS011;62269;47.594;17.638;2023-12-04T04:35:48;15.35;;;11.05;;
62673;SDS011;62269;47.594;17.638;2023-12-04T04:36:45;14.18;;;10.68;;
62673;SDS011;62269;47.594;17.638;2023-12-04T04:37:42;15.88;;;11.63;;
62673;SDS011;62269;47.594;17.638;2023-12-04T04:38:42;13.75;;;9.63;;
62673;SDS011;62269;47.594;17.638;2023-12-04T04:39:39;14.75;;;10.15;;
62673;SDS011;62269;47.594;17.638;2023-12-04T04:40:37;14.43;;;9.93;;
62673;SDS011;62269;47.594;17.638;2023-12-04T04:41:38;12.25;;;9.75;;
62673;SDS011;62269;47.594;17.638;2023-12-04T04:42:36;14.98;;;10.45;;
62673;SDS011;62269;47.594;17.638;2023-12-04T04:43:33;14.35;;;9.93;;
62673;SDS011;62269;47.594;17.638;2023-12-04T04:44:30;14.45;;;10.82;;
62673;SDS011;62269;47.594;17.638;2023-12-04T04:45:28;15.35;;;9.95;;
62673;SDS011;62269;47.594;17.638;2023-12-04T04:46:26;13.50;;;10.05;;
62673;SDS011;62269;47.594;17.638;2023-12-04T04:47:24;13.60;;;10.10;;
62673;SDS011;62269;47.594;17.638;2023-12-04T04:48:21;13.30;;;9.57;;
62673;SDS011;62269;47.594;17.638;2023-12-04T04:49:18;13.73;;;9.82;;
62673;SDS011;62269;47.594;17.638;2023-12-04T04:50:16;13.20;;;9.70;;
62673;SDS011;62269;47.594;17.638;2023-12-04T04:51:13;12.77;;;8.93;;
62673;SDS011;62269;47.594;17.638;2023-12-04T04:52:10;12.73;;;9.55;;
62673;SDS011;62269;47.594;17.638;2023-12-04T04:53:07;15.00;;;10.65;;
62673;SDS011;62269;47.594;17.638;2023-12-04T04:54:04;14.40;;;9.68;;
62673;SDS011;62269;47.594;17.638;2023-12-04T04:55:02;13.38;;;10.02;;
62673;SDS011;62269;47.594;17.638;2023-12-04T04:55:59;12.73;;;9.63;;
62673;SDS011;62269;47.594;17.638;2023-12-04T04:56:56;13.35;;;9.45;;
62673;SDS011;62269;47.594;17.638;2023-12-04T04:57:54;11.90;;;9.65;;
62673;SDS011;62269;47.594;17.638;2023-12-04T04:58:51;13.95;;;10.25;;
62673;SDS011;62269;47.594;17.638;2023-12-04T04:59:49;13.18;;;10.30;;
62673;SDS011;62269;47.594;17.638;2023-12-04T05:00:46;12.75;;;9.65;;
62673;SDS011;62269;47.594;17.638;2023-12-04T05:01:44;14.05;;;9.48;;
62673;SDS011;62269;47.594;17.638;2023-12-04T05:02:41;11.93;;;9.48;;
62673;SDS011;62269;47.594;17.638;2023-12-04T05:03:38;12.15;;;9.13;;
62673;SDS011;62269;47.594;17.638;2023-12-04T05:04:36;13.75;;;9.82;;
62673;SDS011;62269;47.594;17.638;2023-12-04T05:05:33;14.23;;;8.98;;
62673;SDS011;62269;47.594;17.638;2023-12-04T05:06:30;13.65;;;10.10;;
62673;SDS011;62269;47.594;17.638;2023-12-04T05:07:28;11.57;;;8.48;;
62673;SDS011;62269;47.594;17.638;2023-12-04T05:08:26;13.80;;;10.38;;
62673;SDS011;62269;47.594;17.638;2023-12-04T05:09:23;13.45;;;9.55;;
62673;SDS011;62269;47.594;17.638;2023-12-04T05:10:21;13.18;;;10.70;;
62673;SDS011;62269;47.594;17.638;2023-12-04T05:11:18;11.73;;;9.57;;
62673;SDS011;62269;47.594;17.638;2023-12-04T05:12:15;12.27;;;9.65;;
62673;SDS011;62269;47.594;17.638;2023-12-04T05:13:12;12.60;;;8.98;;
62673;SDS011;62269;47.594;17.638;2023-12-04T05:14:09;10.68;;;8.40;;
62673;SDS011;62269;47.594;17.638;2023-12-04T05:15:07;13.43;;;9.75;;
62673;SDS011;62269;47.594;17.638;2023-12-04T05:16:04;12.13;;;9.13;;
62673;SDS011;62269;47.594;17.638;2023-12-04T05:17:02;13.65;;;9.27;;
62673;SDS011;62269;47.594;17.638;2023-12-04T05:17:59;13.50;;;9.25;;
62673;SDS011;62269;47.594;17.638;2023-12-04T05:18:56;11.30;;;8.50;;
62673;SDS011;62269;47.594;17.638;2023-12-04T05:19:54;13.23;;;9.38;;
62673;SDS011;62269;47.594;17.638;2023-12-04T05:20:51;10.80;;;8.63;;
62673;SDS011;62269;47.594;17.638;2023-12-04T05:21:48;12.93;;;9.10;;
62673;SDS011;62269;47.594;17.638;2023-12-04T05:22:45;12.43;;;9.88;;
62673;SDS011;62269;47.594;17.638;2023-12-04T05:23:43;11.88;;;8.77;;
62673;SDS011;62269;47.594;17.638;2023-12-04T05:24:40;13.40;;;8.70;;
62673;SDS011;62269;47.594;17.638;2023-12-04T05:25:37;14.07;;;9.10;;
62673;SDS011;62269;47.594;17.638;2023-12-04T05:26:43;11.57;;;9.02;;
62673;SDS011;62269;47.594;17.638;2023-12-04T05:27:40;13.07;;;9.45;;
62673;SDS011;62269;47.594;17.638;2023-12-04T05:28:38;12.80;;;10.23;;
62673;SDS011;62269;47.594;17.638;2023-12-04T05:29:36;13.48;;;9.48;;
62673;SDS011;62269;47.594;17.638;2023-12-04T05:30:33;11.85;;;8.80;;
62673;SDS011;62269;47.594;17.638;2023-12-04T05:31:30;14.55;;;9.52;;
62673;SDS011;62269;47.594;17.638;2023-12-04T05:32:27;12.77;;;9.38;;
62673;SDS011;62269;47.594;17.638;2023-12-04T05:33:24;14.48;;;9.90;;
62673;SDS011;62269;47.594;17.638;2023-12-04T05:34:22;14.50;;;10.70;;